Latest Weather Observations for Mount Buller

IDV60801

Issued at 2:02 pm EST Saturday 25 April 2015 (issued every 30 minutes, with the page automatically refreshed every 10 minutes)

About weather observations | Map of weather stations | Latest weather observations for VIC | Other Formats
Station Details ID: 083024 Name: MOUNT BULLER Lat: -37.15 Lon: 146.44 Height: 1707.0 m
Data from the previous 72 hours. | See also: Recent months at Mount Buller
Date/Time
EST
Temp
°C
App
Temp
°C
Dew
Point
Rel
Hum
%
Delta-T
°C
Wind Press
QNH
hPa
Press
MSL
hPa
Rain
since 9 am
mm
Dir
 
Spd
km/h
Gust
km/h
Spd
kts
Gust
kts
25/02:00pm 4.6 2.1 4.6 100 0.0 SW 7 13 4 7 - - 0.4
25/01:30pm 4.6 2.6 4.6 100 0.0 SE 4 9 2 5 - - 0.4
25/01:00pm 5.6 3.5 5.6 100 0.0 NW 6 11 3 6 - - 0.2
25/12:30pm 3.9 1.2 3.9 100 0.0 NW 7 13 4 7 - - 0.2
25/12:00pm 3.9 0.9 3.9 100 0.0 NNW 9 11 5 6 - - 0.2
25/11:30am 3.5 1.7 3.5 100 0.0 NNW 2 4 1 2 - - 0.2
25/11:00am 2.8 -0.1 2.8 100 0.0 NNE 7 9 4 5 - - 0.2
25/10:30am 2.7 -0.6 2.7 100 0.0 N 9 13 5 7 - - 0.2
25/10:00am 2.6 -0.3 2.6 100 0.0 N 7 9 4 5 - - 0.2
25/09:30am 2.3 -1.0 2.3 100 0.0 W 9 15 5 8 - - 0.2
25/09:00am 1.0 -4.4 1.0 100 0.0 NNW 19 24 10 13 - - 12.0
25/08:30am 1.6 -3.7 1.6 100 0.0 NNW 19 26 10 14 - - 11.4
25/08:00am 1.0 -3.7 1.0 100 0.0 NNW 15 26 8 14 - - 10.4
25/07:30am 1.6 -3.4 1.6 100 0.0 N 17 24 9 13 - - 7.6
25/07:00am 2.0 -4.2 2.0 100 0.0 NNW 24 35 13 19 - - 5.4
25/06:30am 1.6 -4.7 1.6 100 0.0 NNW 24 43 13 23 - - 5.2
25/06:10am 1.5 -4.1 1.5 100 0.0 NNW 20 46 11 25 - - 3.0
25/06:00am 3.4 0.3 3.4 100 0.0 WNW 9 15 5 8 - - 0.6
25/05:30am 3.4 1.2 3.4 100 0.0 N 4 7 2 4 - - 0.0
25/05:00am 3.9 0.9 3.9 100 0.0 N 9 13 5 7 - - 0.0
25/04:30am 3.9 -0.3 3.9 100 0.0 N 15 20 8 11 - - 0.0
25/04:00am 3.9 0.9 3.9 100 0.0 NNW 9 13 5 7 - - 0.0
25/03:30am 3.7 1.0 3.7 100 0.0 NNW 7 11 4 6 - - 0.0
25/03:00am 4.1 0.3 4.1 100 0.0 NNW 13 28 7 15 - - 0.0
25/02:30am 4.2 -0.3 4.2 100 0.0 NNW 17 24 9 13 - - 0.0
25/02:00am 4.1 -0.8 4.1 100 0.0 NNW 19 26 10 14 - - 0.0
25/01:30am 4.1 -0.4 4.1 100 0.0 NNW 17 30 9 16 - - 0.0
25/01:00am 4.3 -0.2 4.3 100 0.0 NNW 17 32 9 17 - - 0.0
25/12:30am 4.3 -0.8 4.3 100 0.0 NNW 20 28 11 15 - - 0.0
25/12:00am 4.1 -0.4 4.1 100 0.0 NNW 17 24 9 13 - - 0.0
 
Date/Time
EST
Temp
°C
App
Temp
°C
Dew
Point
Rel
Hum
%
Delta-T
°C
Wind Press
QNH
hPa
Press
MSL
hPa
Rain
since 9 am
mm
Dir
 
Spd
km/h
Gust
km/h
Spd
kts
Gust
kts
24/11:30pm 4.0 -0.5 4.0 100 0.0 NNW 17 28 9 15 - - 0.0
24/11:00pm 4.0 -0.5 4.0 100 0.0 NNW 17 24 9 13 - - 0.0
24/10:30pm 4.0 -0.5 4.0 100 0.0 NNW 17 24 9 13 - - 0.0
24/10:00pm 4.0 -1.5 4.0 100 0.0 NNW 22 32 12 17 - - 0.0
24/09:30pm 4.1 -1.8 4.1 100 0.0 NNW 24 32 13 17 - - 0.0
24/09:00pm 4.1 -1.0 4.1 100 0.0 NNW 20 30 11 16 - - 0.0
24/08:30pm 4.3 -1.5 4.3 100 0.0 N 24 37 13 20 - - 0.0
24/08:00pm 4.4 -1.8 4.4 100 0.0 NNW 26 35 14 19 - - 0.0
24/07:30pm 4.7 -1.4 4.7 100 0.0 NNW 26 37 14 20 - - 0.0
24/07:00pm 4.8 -1.7 4.8 100 0.0 NNW 28 37 15 20 - - 0.0
24/06:30pm 5.0 -1.4 5.0 100 0.0 NNW 28 39 15 21 - - 0.0
24/06:00pm 5.3 -1.5 5.3 100 0.0 NNW 30 39 16 21 - - 0.0
24/05:30pm 5.2 -1.2 5.2 100 0.0 NNW 28 39 15 21 - - 0.0
24/05:00pm 5.1 -1.3 5.1 100 0.0 NNW 28 35 15 19 - - 0.0
24/04:30pm 5.2 -1.6 5.2 100 0.0 NNW 30 39 16 21 - - 0.0
24/04:00pm 5.5 -0.5 5.5 100 0.0 NNW 26 43 14 23 - - 0.0
24/03:30pm 5.6 -0.7 5.6 100 0.0 NNW 28 43 15 23 - - 0.0
24/03:00pm 5.5 -0.8 5.5 100 0.0 N 28 41 15 22 - - 0.0
24/02:30pm 5.8 -0.1 5.8 100 0.0 NNW 26 39 14 21 - - 0.0
24/02:00pm 5.8 0.7 5.8 100 0.0 NNW 22 33 12 18 - - 0.0
24/01:30pm 5.8 -0.5 5.8 100 0.0 NNW 28 39 15 21 - - 0.0
24/01:00pm 5.9 -0.4 5.9 100 0.0 NNW 28 41 15 22 - - 0.0
24/12:30pm 5.9 -0.7 5.9 100 0.0 NNW 30 39 16 21 - - 0.0
24/12:00pm 6.0 0.1 6.0 100 0.0 NNW 26 35 14 19 - - 0.0
24/11:30am 5.9 -1.1 5.9 100 0.0 NNW 32 43 17 23 - - 0.0
24/11:00am 6.1 -0.5 6.1 100 0.0 NNW 30 43 16 23 - - 0.0
24/10:30am 6.2 -0.9 6.2 100 0.0 NNW 33 43 18 23 - - 0.0
24/10:00am 6.6 -0.3 6.6 100 0.0 NNW 32 46 17 25 - - 0.0
24/09:30am 6.9 0.5 6.9 100 0.0 NNW 30 39 16 21 - - 0.0
24/09:00am 7.0 1.4 7.0 100 0.0 NNW 26 35 14 19 - - 11.6
24/08:30am 7.0 1.4 7.0 100 0.0 NNW 26 37 14 20 - - 11.6
24/08:00am 7.2 2.8 7.2 100 0.0 NNW 20 30 11 16 - - 11.6
24/07:30am 7.3 3.1 7.3 100 0.0 NNW 19 26 10 14 - - 11.6
24/07:00am 7.4 2.2 7.4 100 0.0 NNW 24 30 13 16 - - 11.0
24/06:30am 7.6 3.8 7.6 100 0.0 N 17 32 9 17 - - 7.6
24/06:00am 7.7 2.6 7.7 100 0.0 NNW 24 32 13 17 - - 6.0
24/05:30am 7.8 2.7 7.8 100 0.0 NNW 24 35 13 19 - - 4.2
24/05:00am 7.7 3.6 7.7 100 0.0 N 19 22 10 12 - - 2.0
24/04:30am 7.7 3.9 7.7 100 0.0 N 17 19 9 10 - - 1.0
24/04:00am 7.8 4.8 7.8 100 0.0 N 13 17 7 9 - - 1.0
24/03:30am 7.9 3.6 7.9 100 0.0 NNW 20 24 11 13 - - 1.0
24/03:00am 7.9 3.8 7.9 100 0.0 NNW 19 26 10 14 - - 1.0
24/02:30am 7.9 4.9 7.9 100 0.0 NNW 13 17 7 9 - - 1.0
24/02:00am 7.9 4.5 7.8 99 0.1 NW 15 24 8 13 - - 1.0
24/01:30am 7.5 4.8 7.4 99 0.1 NW 11 17 6 9 - - 1.0
24/01:00am 8.0 4.3 7.9 99 0.1 NNW 17 22 9 12 - - 1.0
24/12:30am 7.7 5.4 7.3 97 0.2 NW 9 13 5 7 - - 1.0
24/12:00am 8.3 5.6 7.2 93 0.6 WNW 11 15 6 8 - - 1.0
 
Date/Time
EST
Temp
°C
App
Temp
°C
Dew
Point
Rel
Hum
%
Delta-T
°C
Wind Press
QNH
hPa
Press
MSL
hPa
Rain
since 9 am
mm
Dir
 
Spd
km/h
Gust
km/h
Spd
kts
Gust
kts
23/11:30pm 8.1 5.9 8.0 99 0.1 NW 9 11 5 6 - - 0.8
23/11:00pm 8.1 5.9 7.8 98 0.2 NNW 9 11 5 6 - - 0.8
23/10:30pm 8.1 5.9 7.7 97 0.2 NW 9 11 5 6 - - 0.8
23/10:00pm 7.9 5.6 7.3 96 0.3 NNW 9 11 5 6 - - 0.8
23/09:30pm 8.1 6.2 7.5 96 0.3 NW 7 11 4 6 - - 0.8
23/09:00pm 8.0 5.8 7.7 98 0.2 NW 9 11 5 6 - - 0.8
23/08:30pm 8.1 6.1 7.0 93 0.6 NW 7 11 4 6 - - 0.8
23/08:00pm 8.4 6.6 7.3 93 0.6 NW 6 7 3 4 - - 0.8
23/07:30pm 8.3 6.5 7.1 92 0.6 N 6 6 3 3 - - 0.8
23/07:00pm 8.3 6.8 6.9 91 0.7 NE 4 4 2 2 - - 0.8
23/06:30pm 8.2 7.1 7.1 93 0.6 NE 2 6 1 3 - - 0.8
23/06:00pm 8.2 7.3 7.6 96 0.3 ESE 2 6 1 3 - - 0.8
23/05:30pm 8.2 6.5 7.6 96 0.3 S 6 6 3 3 - - 0.8
23/05:00pm 8.8 7.2 8.2 96 0.3 SE 6 7 3 4 - - 0.8
23/04:30pm 9.0 7.8 8.1 94 0.5 ESE 4 9 2 5 - - 0.8
23/04:00pm 9.4 7.8 7.8 90 0.8 SE 6 9 3 5 - - 0.0
23/03:30pm 10.0 8.4 8.1 88 1.0 SSE 6 7 3 4 - - 0.0
23/03:00pm 10.2 8.7 8.3 88 1.0 SSE 6 9 3 5 - - 0.0
23/02:30pm 10.1 7.9 7.9 86 1.2 SSE 9 13 5 7 - - 0.0
23/02:00pm 10.8 9.0 8.0 83 1.5 ESE 7 13 4 7 - - 0.0
23/01:30pm 11.4 8.7 8.8 84 1.4 SE 13 20 7 11 - - 0.0
23/01:00pm 10.6 8.1 8.0 84 1.4 SE 11 19 6 10 - - 0.0
23/12:30pm 11.0 7.5 8.8 86 1.2 SE 17 28 9 15 - - 0.0
23/12:00pm 9.9 6.6 8.0 88 1.0 SE 15 28 8 15 - - 0.0
23/11:30am 9.4 5.3 7.7 89 0.9 SE 19 32 10 17 - - 0.0
23/11:00am 9.3 5.3 8.4 94 0.5 SE 19 30 10 16 - - 0.0
23/10:30am 8.6 5.2 7.5 93 0.6 SSE 15 24 8 13 - - 0.0
23/10:00am 9.0 4.0 8.1 94 0.5 S 24 39 13 21 - - 0.0
23/09:30am 8.0 3.7 7.7 98 0.2 S 20 30 11 16 - - 0.0
23/09:00am 7.4 2.6 7.4 100 0.0 S 22 35 12 19 - - 0.0
23/08:30am 7.2 1.2 7.2 100 0.0 SSE 28 37 15 20 - - 0.0
23/08:00am 7.0 1.7 7.0 100 0.0 SSE 24 39 13 21 - - 0.0
23/07:30am 6.8 0.4 6.8 100 0.0 SSE 30 44 16 24 - - 0.0
23/07:00am 6.5 0.4 6.5 100 0.0 SSE 28 41 15 22 - - 0.0
23/06:30am 6.4 0.6 6.3 99 0.1 SSE 26 33 14 18 - - 0.0
23/06:00am 6.4 0.2 6.1 98 0.1 SSE 28 37 15 20 - - 0.0
23/05:30am 6.7 -0.2 6.3 97 0.2 SSE 32 46 17 25 - - 0.0
23/05:14am 6.5 0.4 6.4 99 0.1 SSE 28 48 15 26 - - 0.0
23/05:00am 6.3 -0.3 6.0 98 0.1 SSE 30 41 16 22 - - 0.0
23/04:52am 6.4 -0.6 6.0 97 0.2 SSE 32 50 17 27 - - 0.0
23/04:30am 6.4 0.9 6.1 98 0.1 S 24 35 13 19 - - 0.0
23/04:00am 6.0 -0.7 5.6 97 0.2 S 30 44 16 24 - - 0.0
23/03:40am 6.1 -1.1 5.7 97 0.2 SSE 33 54 18 29 - - 0.0
23/03:30am 6.1 -1.1 5.7 97 0.2 SSE 33 46 18 25 - - 0.0
23/03:19am 6.0 -1.1 5.6 97 0.2 SSE 32 50 17 27 - - 0.0
23/03:00am 6.0 -1.1 5.4 96 0.3 SSE 32 41 17 22 - - 0.0
23/02:30am 6.2 0.2 5.5 95 0.3 S 26 37 14 20 - - 0.0
23/02:00am 6.4 0.0 5.4 93 0.5 S 28 41 15 22 - - 0.0
23/01:30am 6.5 -0.6 5.5 93 0.5 SSE 32 43 17 23 - - 0.0
23/01:00am 6.3 -1.0 5.4 94 0.4 SSE 33 39 18 21 - - 0.0
23/12:30am 6.1 -1.0 5.7 97 0.2 SSE 32 43 17 23 - - 0.0
23/12:00am 6.1 -1.0 5.5 96 0.3 S 32 46 17 25 - - 0.0
 
Date/Time
EST
Temp
°C
App
Temp
°C
Dew
Point
Rel
Hum
%
Delta-T
°C
Wind Press
QNH
hPa
Press
MSL
hPa
Rain
since 9 am
mm
Dir
 
Spd
km/h
Gust
km/h
Spd
kts
Gust
kts
22/11:48pm 6.4 -0.1 6.3 99 0.1 S 30 54 16 29 - - 0.0
22/11:30pm 5.9 0.0 5.9 100 0.0 S 26 37 14 20 - - 0.0
22/11:00pm 5.4 -1.3 5.4 100 0.0 S 30 44 16 24 - - 0.0
22/10:30pm 5.5 -1.8 5.4 99 0.0 S 33 50 18 27 - - 0.0
22/10:22pm 5.8 -1.3 5.5 98 0.1 SSE 32 50 17 27 - - 0.0
22/10:00pm 6.0 -1.6 6.0 100 0.0 SSE 35 50 19 27 - - 0.0
22/09:33pm 5.5 -1.6 5.5 100 0.0 SSE 32 50 17 27 - - 0.0
22/09:30pm 5.3 -2.0 5.3 100 0.0 SSE 33 46 18 25 - - 0.0
22/09:00pm 5.2 -2.5 5.2 100 0.0 S 35 46 19 25 - - 0.0
22/08:30pm 5.1 -3.4 5.0 99 0.0 SSE 39 48 21 26 - - 0.0
22/08:00pm 5.1 -3.1 4.7 97 0.2 S 37 48 20 26 - - 0.0
22/07:30pm 5.3 -3.3 4.6 95 0.3 SSE 39 54 21 29 - - 0.0
22/07:15pm 5.3 -3.8 4.1 92 0.6 SSE 41 59 22 32 - - 0.0
22/07:00pm 5.3 -3.8 4.0 91 0.6 SSE 41 57 22 31 - - 0.0
22/06:51pm 5.2 -4.3 3.7 90 0.7 SSE 43 61 23 33 - - 0.0
22/06:30pm 5.4 -5.6 2.8 83 1.2 SSE 50 67 27 36 - - 0.0
22/06:00pm 5.4 -5.1 3.4 87 0.9 SSE 48 67 26 36 - - 0.0
22/05:32pm 5.5 -5.3 4.0 90 0.7 SSE 50 69 27 37 - - 0.0
22/05:30pm 5.6 -4.8 4.2 91 0.7 SSE 48 61 26 33 - - 0.0
22/05:00pm 5.8 -3.5 4.9 94 0.4 SSE 43 61 23 33 - - 0.0
22/04:30pm 6.0 -2.7 4.3 89 0.8 SSE 39 57 21 31 - - 0.0
22/04:00pm 6.0 -4.8 4.2 88 0.9 SSE 50 70 27 38 - - 0.0
22/03:30pm 6.1 -5.0 4.3 88 0.9 SSE 52 72 28 39 - - 0.0
22/03:00pm 6.5 -4.4 3.8 83 1.3 SSE 50 72 27 39 - - 0.0
22/02:30pm 6.8 -2.8 4.6 86 1.1 SSE 44 67 24 36 - - 0.0

Other Formats:

Comma delimited format used in spreadsheet applications
http://www.bom.gov.au/fwo/IDV60801/IDV60801.94894.axf

JavaScript Object Notation format (JSON) in row-major order
http://www.bom.gov.au/fwo/IDV60801/IDV60801.94894.json